createdAt,value
2018-06-20T00:01:42.815Z,60.60
2018-06-20T00:04:11.558Z,60.40
2018-06-20T00:06:40.352Z,60.30
2018-06-20T00:09:10.356Z,60.40
2018-06-20T00:11:39.115Z,60.70
2018-06-20T00:14:07.985Z,60.80
2018-06-20T00:16:36.709Z,60.80
2018-06-20T00:19:05.494Z,60.90
2018-06-20T00:21:34.231Z,61.00
2018-06-20T00:24:03.045Z,61.10
2018-06-20T00:26:31.734Z,61.90
2018-06-20T00:29:00.453Z,61.30
2018-06-20T00:31:29.214Z,61.40
2018-06-20T00:33:57.946Z,61.50
2018-06-20T00:36:26.672Z,61.70
2018-06-20T00:38:55.422Z,61.80
2018-06-20T00:41:24.145Z,61.80
2018-06-20T00:43:52.927Z,61.80
2018-06-20T00:46:21.692Z,62.00
2018-06-20T00:48:50.414Z,62.00
2018-06-20T00:51:19.210Z,62.20
2018-06-20T00:53:47.999Z,62.20
2018-06-20T00:56:24.091Z,62.30
2018-06-20T00:58:52.840Z,62.30
2018-06-20T01:01:22.225Z,62.40
2018-06-20T01:03:51.650Z,62.50
2018-06-20T01:06:20.408Z,62.50
2018-06-20T01:08:54.156Z,62.40
2018-06-20T01:11:23.244Z,62.50
2018-06-20T01:13:51.976Z,62.70
2018-06-20T01:16:20.695Z,62.60
2018-06-20T01:18:49.454Z,62.70
2018-06-20T01:21:18.941Z,62.90
2018-06-20T01:23:47.899Z,63.10
2018-06-20T01:26:16.723Z,63.00
2018-06-20T01:28:45.442Z,63.20
2018-06-20T01:31:14.191Z,63.20
2018-06-20T01:33:43.948Z,63.40
2018-06-20T01:36:12.703Z,63.50
2018-06-20T01:38:41.405Z,63.50
2018-06-20T01:41:10.233Z,63.60
2018-06-20T01:43:38.934Z,63.50
2018-06-20T01:46:07.732Z,63.60
2018-06-20T01:48:37.770Z,63.50
2018-06-20T01:51:06.463Z,63.60
2018-06-20T01:54:05.840Z,63.60
2018-06-20T01:56:34.576Z,63.50
2018-06-20T01:59:03.278Z,63.60
2018-06-20T02:01:32.031Z,63.50
2018-06-20T02:04:00.867Z,63.40
2018-06-20T02:06:29.568Z,63.50
2018-06-20T02:08:58.626Z,63.40
2018-06-20T02:11:29.131Z,63.60
2018-06-20T02:13:58.001Z,63.90
2018-06-20T02:16:26.803Z,63.00
2018-06-20T02:18:55.621Z,62.10
2018-06-20T02:23:53.839Z,59.90
2018-06-20T02:26:22.512Z,59.20
2018-06-20T02:28:51.246Z,57.90
2018-06-20T02:31:19.983Z,56.80
2018-06-20T02:33:48.681Z,55.90
2018-06-20T02:36:22.821Z,55.50
2018-06-20T02:38:51.700Z,54.20
2018-06-20T02:41:20.431Z,53.40
2018-06-20T02:43:49.405Z,53.10
2018-06-20T02:46:18.292Z,52.30
2018-06-20T02:48:47.153Z,52.80
2018-06-20T02:51:15.827Z,52.40
2018-06-20T02:53:44.588Z,51.90
2018-06-20T02:56:13.420Z,51.40
2018-06-20T02:58:42.126Z,50.20
2018-06-20T03:01:10.854Z,49.60
2018-06-20T03:03:40.479Z,49.20
2018-06-20T03:06:09.223Z,47.80
2018-06-20T03:08:37.964Z,46.70
2018-06-20T03:11:06.748Z,46.70
2018-06-20T03:13:35.473Z,45.60
2018-06-20T03:16:04.408Z,44.80
2018-06-20T03:18:33.197Z,44.60
2018-06-20T03:21:02.071Z,43.00
2018-06-20T03:23:30.881Z,42.50
2018-06-20T03:25:59.639Z,42.40
2018-06-20T03:28:28.386Z,42.30
2018-06-20T03:30:57.095Z,42.80
2018-06-20T03:33:25.894Z,42.90
2018-06-20T03:35:54.698Z,42.10
2018-06-20T03:38:23.447Z,41.40
2018-06-20T03:40:52.263Z,40.40
2018-06-20T03:43:21.063Z,40.60
2018-06-20T03:45:49.814Z,40.20
2018-06-20T03:48:18.563Z,40.10
2018-06-20T03:50:47.319Z,40.00
2018-06-20T03:53:16.062Z,39.90
2018-06-20T03:55:44.819Z,39.60
2018-06-20T03:58:13.605Z,39.40
2018-06-20T04:00:42.425Z,38.50
2018-06-20T04:03:11.213Z,37.70
2018-06-20T04:05:39.970Z,36.90
2018-06-20T04:08:08.742Z,36.30
2018-06-20T04:10:37.455Z,36.00
2018-06-20T04:13:06.222Z,35.40
2018-06-20T04:15:34.987Z,34.40
2018-06-20T04:18:03.725Z,33.80
2018-06-20T04:20:32.450Z,33.30
2018-06-20T04:23:01.263Z,34.50
2018-06-20T04:25:30.040Z,34.00
2018-06-20T04:27:58.917Z,33.20
2018-06-20T04:30:27.676Z,33.30
2018-06-20T04:32:56.437Z,33.40
2018-06-20T04:35:25.173Z,33.50
2018-06-20T04:37:53.886Z,33.40
2018-06-20T04:40:22.674Z,32.80
2018-06-20T04:42:51.482Z,32.90
2018-06-20T04:45:20.252Z,33.20
2018-06-20T04:47:48.972Z,33.00
2018-06-20T04:50:17.784Z,31.80
2018-06-20T04:52:46.651Z,33.10
2018-06-20T04:55:15.420Z,32.20
2018-06-20T04:57:44.127Z,32.40
2018-06-20T05:00:14.100Z,32.00
2018-06-20T05:02:43.196Z,31.60
2018-06-20T05:05:11.883Z,32.50
2018-06-20T05:07:41.195Z,31.60
2018-06-20T05:10:09.906Z,31.90
2018-06-20T05:12:38.638Z,31.70
2018-06-20T05:15:07.371Z,32.00
2018-06-20T05:17:36.087Z,31.10
2018-06-20T05:20:04.797Z,30.50
2018-06-20T05:22:33.631Z,30.60
2018-06-20T05:25:02.437Z,30.60
2018-06-20T05:27:31.247Z,30.20
2018-06-20T05:29:59.935Z,30.70
2018-06-20T05:32:28.658Z,30.70
2018-06-20T05:34:57.404Z,30.10
2018-06-20T05:37:26.177Z,29.30
2018-06-20T05:39:54.950Z,30.30
2018-06-20T05:42:23.702Z,30.60
2018-06-20T05:44:52.499Z,31.10
2018-06-20T05:47:21.201Z,32.60
2018-06-20T05:49:49.912Z,32.20
2018-06-20T05:52:18.614Z,31.90
2018-06-20T05:54:47.331Z,32.70
2018-06-20T05:57:16.226Z,32.80
2018-06-20T05:59:45.281Z,33.20
2018-06-20T06:02:14.036Z,32.80
2018-06-20T06:04:42.732Z,32.90
2018-06-20T06:07:11.438Z,33.90
2018-06-20T06:09:40.202Z,33.30
2018-06-20T06:12:08.963Z,34.10
2018-06-20T06:14:37.682Z,34.40
2018-06-20T06:17:06.419Z,34.30
2018-06-20T06:19:35.338Z,34.90
2018-06-20T06:22:04.055Z,34.80
2018-06-20T06:24:32.768Z,33.80
2018-06-20T06:27:01.610Z,33.10
2018-06-20T06:29:30.353Z,33.50
2018-06-20T06:31:59.114Z,34.30
2018-06-20T06:34:27.880Z,33.90
2018-06-20T06:36:56.648Z,34.40
2018-06-20T06:39:25.870Z,35.90
2018-06-20T06:41:54.734Z,36.00
2018-06-20T06:44:23.429Z,35.00
2018-06-20T06:46:52.212Z,34.70
2018-06-20T06:49:20.921Z,34.90
2018-06-20T06:51:49.672Z,34.30
2018-06-20T06:54:18.418Z,34.30
2018-06-20T06:56:47.129Z,34.60
2018-06-20T06:59:15.907Z,35.30
2018-06-20T07:01:44.613Z,34.70
2018-06-20T07:04:13.463Z,34.10
2018-06-20T07:06:42.194Z,34.40
2018-06-20T07:09:10.979Z,35.10
2018-06-20T07:11:39.763Z,34.80
2018-06-20T07:14:08.384Z,35.50
2018-06-20T07:16:37.111Z,34.10
2018-06-20T07:19:05.921Z,33.40
2018-06-20T07:21:34.736Z,34.00
2018-06-20T07:24:03.465Z,34.60
2018-06-20T07:26:32.306Z,32.90
2018-06-20T07:29:01.066Z,33.80
2018-06-20T07:31:29.821Z,33.80
2018-06-20T07:33:58.525Z,34.10
2018-06-20T07:36:27.483Z,35.50
2018-06-20T07:38:56.168Z,33.90
2018-06-20T07:41:24.859Z,33.30
2018-06-20T07:43:53.600Z,32.30
2018-06-20T07:46:22.338Z,32.30
2018-06-20T07:48:51.152Z,32.70
2018-06-20T07:51:19.917Z,32.90
2018-06-20T07:53:48.628Z,33.70
2018-06-20T07:56:17.355Z,32.50
2018-06-20T07:58:51.406Z,32.70
2018-06-20T08:01:36.529Z,33.50
2018-06-20T08:04:10.948Z,33.80
2018-06-20T08:06:45.285Z,32.90
2018-06-20T08:09:19.366Z,33.00
2018-06-20T08:11:53.380Z,33.20
2018-06-20T08:14:27.630Z,33.40
2018-06-20T08:17:01.905Z,33.70
2018-06-20T08:19:36.068Z,32.90
2018-06-20T08:22:04.894Z,33.60
2018-06-20T08:24:33.889Z,34.70
2018-06-20T08:27:02.656Z,35.70
2018-06-20T08:29:31.474Z,34.80
2018-06-20T08:32:00.258Z,34.60
2018-06-20T08:34:28.981Z,34.10
2018-06-20T08:36:57.701Z,34.40
2018-06-20T08:39:26.490Z,35.60
2018-06-20T08:41:55.279Z,34.70
2018-06-20T08:44:23.983Z,34.70
2018-06-20T08:46:52.710Z,34.20
2018-06-20T08:49:21.508Z,35.60
2018-06-20T08:51:50.287Z,35.90
2018-06-20T08:54:19.007Z,34.80
2018-06-20T08:56:47.754Z,35.20
2018-06-20T08:59:16.590Z,35.20
2018-06-20T09:04:19.203Z,35.10
2018-06-20T09:06:53.537Z,35.00
2018-06-20T09:09:27.750Z,35.50
2018-06-20T09:12:01.751Z,34.70
2018-06-20T09:14:35.053Z,34.40
2018-06-20T09:17:09.260Z,34.40
2018-06-20T09:19:44.835Z,34.70
2018-06-20T09:22:14.315Z,34.30
2018-06-20T09:24:43.455Z,33.60
2018-06-20T09:27:12.245Z,34.00
2018-06-20T09:29:40.988Z,34.10
2018-06-20T09:32:09.734Z,34.30
2018-06-20T09:34:38.685Z,34.30
2018-06-20T09:37:07.518Z,35.40
2018-06-20T09:39:36.445Z,35.40
2018-06-20T09:42:05.133Z,35.60
2018-06-20T09:44:34.081Z,35.40
2018-06-20T09:47:02.859Z,35.40
2018-06-20T09:49:31.574Z,36.60
2018-06-20T09:52:00.429Z,36.40
2018-06-20T09:54:29.223Z,36.80
2018-06-20T09:56:58.047Z,37.20
2018-06-20T09:59:32.203Z,37.40
2018-06-20T10:02:06.381Z,37.40
2018-06-20T10:04:40.602Z,37.30
2018-06-20T10:07:15.469Z,36.60
2018-06-20T10:09:49.732Z,36.70
2018-06-20T10:12:23.778Z,36.80
2018-06-20T10:14:52.579Z,36.60
2018-06-20T10:18:50.779Z,37.10
2018-06-20T10:21:19.649Z,36.80
2018-06-20T10:26:16.910Z,36.30
2018-06-20T10:28:45.727Z,36.40
2018-06-20T10:31:14.618Z,36.40
2018-06-20T10:33:43.381Z,36.80
2018-06-20T10:36:12.101Z,37.00
2018-06-20T10:38:40.853Z,37.70
2018-06-20T10:41:09.626Z,37.30
2018-06-20T10:43:38.324Z,37.30
2018-06-20T10:46:12.653Z,37.40
2018-06-20T10:48:41.419Z,36.30
2018-06-20T10:51:10.224Z,37.50
2018-06-20T10:53:38.998Z,36.70
2018-06-20T10:56:07.688Z,37.10
2018-06-20T10:58:41.913Z,36.90
2018-06-20T11:01:15.920Z,37.30
2018-06-20T11:03:50.211Z,37.80
2018-06-20T11:06:24.308Z,37.30
2018-06-20T11:08:58.617Z,37.60
2018-06-20T11:11:32.903Z,38.10
2018-06-20T11:14:01.666Z,37.50
2018-06-20T11:16:30.407Z,37.50
2018-06-20T11:18:59.270Z,37.00
2018-06-20T11:21:28.049Z,36.90
2018-06-20T11:23:56.829Z,37.30
2018-06-20T11:26:25.540Z,36.60
2018-06-20T11:31:22.712Z,35.90
2018-06-20T11:33:51.465Z,36.50
2018-06-20T11:36:20.255Z,35.90
2018-06-20T11:38:49.005Z,36.10
2018-06-20T11:41:17.809Z,35.30
2018-06-20T11:43:46.525Z,35.20
2018-06-20T11:46:20.612Z,34.80
2018-06-20T11:48:49.437Z,34.80
2018-06-20T11:51:18.294Z,34.90
2018-06-20T11:53:47.024Z,34.40
2018-06-20T11:56:15.765Z,35.50
2018-06-20T11:58:50.176Z,35.40
2018-06-20T12:01:24.421Z,36.20
2018-06-20T12:03:58.656Z,35.40
2018-06-20T12:06:32.674Z,35.40
2018-06-20T12:09:06.960Z,35.80
2018-06-20T12:11:41.137Z,36.30
2018-06-20T12:14:15.472Z,35.10
2018-06-20T12:16:48.348Z,35.30
2018-06-20T12:19:22.883Z,35.70
2018-06-20T12:24:31.198Z,36.70
2018-06-20T12:27:05.409Z,37.30
2018-06-20T12:29:39.785Z,37.60
2018-06-20T12:32:14.018Z,38.00
2018-06-20T12:34:48.050Z,38.90
2018-06-20T12:37:22.022Z,39.30
2018-06-20T12:39:56.171Z,39.70
2018-06-20T12:43:59.798Z,39.90
2018-06-20T12:46:33.634Z,40.30
2018-06-20T12:49:02.515Z,39.90
2018-06-20T12:51:31.263Z,40.10
2018-06-20T12:53:59.975Z,40.20
2018-06-20T12:56:28.778Z,40.40
2018-06-20T12:58:57.554Z,40.90
2018-06-20T13:01:26.283Z,40.60
2018-06-20T13:03:55.137Z,41.20
2018-06-20T13:06:23.859Z,40.90
2018-06-20T13:08:52.708Z,40.30
2018-06-20T13:11:21.416Z,40.10
2018-06-20T13:13:50.131Z,39.90
2018-06-20T13:16:18.892Z,39.80
2018-06-20T13:18:57.341Z,39.60
2018-06-20T13:21:26.157Z,39.60
2018-06-20T13:23:55.086Z,39.40
2018-06-20T13:26:23.881Z,36.80
2018-06-20T13:28:53.372Z,35.80
2018-06-20T13:31:27.418Z,36.30
2018-06-20T13:34:01.689Z,33.60
2018-06-20T13:36:35.782Z,32.40
2018-06-20T13:39:12.537Z,33.90
2018-06-20T13:41:47.291Z,35.20
2018-06-20T13:44:23.537Z,36.90
2018-06-20T13:46:57.805Z,36.80
2018-06-20T13:49:26.734Z,37.80
2018-06-20T13:51:55.548Z,38.50
2018-06-20T13:54:24.593Z,38.30
2018-06-20T13:56:53.913Z,38.60
2018-06-20T13:59:23.035Z,39.20
2018-06-20T14:01:51.981Z,39.80
2018-06-20T14:04:20.690Z,40.50
2018-06-20T14:06:49.553Z,41.20
2018-06-20T14:09:18.329Z,42.00
2018-06-20T14:11:47.290Z,43.30
2018-06-20T14:14:15.998Z,42.60
2018-06-20T14:16:44.846Z,41.90
2018-06-20T14:19:13.519Z,40.10
2018-06-20T14:21:42.509Z,39.00
2018-06-20T14:24:11.964Z,39.40
2018-06-20T14:26:41.289Z,42.40
2018-06-20T14:29:10.702Z,44.70
2018-06-20T14:31:45.094Z,45.70
2018-06-20T14:34:19.317Z,46.60
2018-06-20T14:36:53.601Z,48.10
2018-06-20T14:39:27.822Z,49.10
2018-06-20T14:42:01.914Z,50.00
2018-06-20T14:44:30.645Z,50.80
2018-06-20T14:46:59.487Z,52.00
2018-06-20T14:49:28.221Z,53.10
2018-06-20T14:51:56.960Z,53.20
2018-06-20T14:54:25.771Z,53.20
2018-06-20T14:56:54.483Z,54.00
2018-06-20T14:59:23.166Z,54.70
2018-06-20T15:01:51.954Z,54.40
2018-06-20T15:04:20.688Z,55.70
2018-06-20T15:06:49.403Z,56.40
2018-06-20T15:09:18.171Z,56.40
2018-06-20T15:11:46.999Z,56.90
2018-06-20T15:14:15.713Z,58.00
2018-06-20T15:16:49.858Z,57.50
2018-06-20T15:19:18.836Z,58.10
2018-06-20T15:21:47.798Z,59.00
2018-06-20T15:24:16.547Z,59.40
2018-06-20T15:26:50.698Z,60.00
2018-06-20T15:29:24.836Z,61.10
2018-06-20T15:31:59.090Z,60.90
2018-06-20T15:34:33.168Z,62.30
2018-06-20T15:37:07.517Z,63.00
2018-06-20T15:39:36.235Z,63.00
2018-06-20T15:42:04.963Z,63.40
2018-06-20T15:44:35.367Z,63.50
2018-06-20T15:47:04.137Z,64.10
2018-06-20T15:49:33.157Z,62.40
2018-06-20T15:52:01.897Z,61.70
2018-06-20T15:54:30.662Z,62.80
2018-06-20T15:56:59.367Z,63.60
2018-06-20T15:59:28.349Z,63.00
2018-06-20T16:01:57.129Z,63.80
2018-06-20T16:04:25.829Z,62.90
2018-06-20T16:06:54.699Z,62.70
2018-06-20T16:09:28.760Z,63.20
2018-06-20T16:11:57.607Z,64.50
2018-06-20T16:14:26.473Z,63.90
2018-06-20T16:16:55.237Z,64.50
2018-06-20T16:21:30.596Z,63.60
2018-06-20T16:24:04.628Z,62.90
2018-06-20T16:26:38.813Z,61.50
2018-06-20T16:29:12.810Z,62.50
2018-06-20T16:31:41.710Z,63.60
2018-06-20T16:34:10.425Z,64.10
2018-06-20T16:36:39.150Z,63.40
2018-06-20T16:39:08.043Z,62.40
2018-06-20T16:41:36.777Z,61.90
2018-06-20T16:44:05.510Z,63.10
2018-06-20T16:46:34.208Z,63.00
2018-06-20T16:49:03.035Z,62.70
2018-06-20T16:51:31.784Z,63.60
2018-06-20T16:54:00.530Z,63.10
2018-06-20T16:56:29.289Z,63.50
2018-06-20T16:58:58.006Z,63.90
2018-06-20T17:01:32.172Z,64.50
2018-06-20T17:04:01.010Z,63.90
2018-06-20T17:06:29.785Z,64.30
2018-06-20T17:08:58.559Z,65.10
2018-06-20T17:11:27.951Z,63.40
2018-06-20T17:14:02.176Z,62.50
2018-06-20T17:16:36.241Z,63.20
2018-06-20T17:19:10.285Z,64.60
2018-06-20T17:21:44.568Z,63.60
2018-06-20T17:24:18.807Z,63.60
2018-06-20T17:26:47.542Z,63.80
2018-06-20T17:29:17.033Z,64.60
2018-06-20T17:31:45.794Z,64.10
2018-06-20T17:34:14.545Z,64.40
2018-06-20T17:36:43.300Z,64.80
2018-06-20T17:39:26.899Z,64.50
2018-06-20T17:41:55.591Z,63.70
2018-06-20T17:44:25.305Z,64.40
2018-06-20T17:46:55.456Z,63.60
2018-06-20T17:49:24.227Z,63.30
2018-06-20T17:51:52.911Z,63.20
2018-06-20T17:54:21.622Z,63.30
2018-06-20T17:56:50.411Z,63.20
2018-06-20T17:59:19.101Z,62.80
2018-06-20T18:01:47.889Z,61.60
2018-06-20T18:04:22.035Z,61.30
2018-06-20T18:06:56.233Z,61.30
2018-06-20T18:09:30.582Z,61.10
2018-06-20T18:12:04.805Z,60.50
2018-06-20T18:14:38.837Z,59.90
2018-06-20T18:17:08.668Z,59.70
2018-06-20T18:19:38.469Z,59.80
2018-06-20T18:22:07.256Z,60.60
2018-06-20T18:24:37.240Z,60.80
2018-06-20T18:27:06.013Z,60.80
2018-06-20T18:29:34.770Z,60.80
2018-06-20T18:32:03.607Z,60.90
2018-06-20T18:34:32.352Z,60.90
2018-06-20T18:37:01.050Z,60.80
2018-06-20T18:39:35.229Z,60.90
2018-06-20T18:42:03.982Z,61.40
2018-06-20T18:44:32.689Z,61.10
2018-06-20T18:47:01.403Z,61.10
2018-06-20T18:49:30.229Z,60.90
2018-06-20T18:51:58.889Z,60.90
2018-06-20T18:54:27.558Z,61.70
2018-06-20T18:56:56.303Z,60.80
2018-06-20T18:59:30.562Z,60.90
2018-06-20T19:02:04.804Z,60.90
2018-06-20T19:04:39.047Z,60.80
2018-06-20T19:07:13.292Z,60.80
2018-06-20T19:09:42.226Z,60.90
2018-06-20T19:12:10.839Z,61.00
2018-06-20T19:14:39.496Z,60.90
2018-06-20T19:17:08.138Z,60.80
2018-06-20T19:19:36.990Z,61.10
2018-06-20T19:22:05.802Z,61.30
2018-06-20T19:24:34.541Z,61.50
2018-06-20T19:27:03.200Z,61.90
2018-06-20T19:29:31.837Z,62.20
2018-06-20T19:32:00.619Z,62.40
2018-06-20T19:34:29.397Z,62.80
2018-06-20T19:36:58.043Z,63.70
2018-06-20T19:39:32.183Z,64.60
2018-06-20T19:42:00.951Z,64.90
2018-06-20T19:44:34.696Z,65.20
2018-06-20T19:47:05.520Z,65.10
2018-06-20T19:49:34.195Z,65.00
2018-06-20T19:52:03.149Z,65.10
2018-06-20T19:54:31.862Z,65.00
2018-06-20T19:57:00.511Z,65.60
2018-06-20T19:59:29.314Z,66.00
2018-06-20T20:01:57.948Z,66.60
2018-06-20T20:04:26.596Z,66.80
2018-06-20T20:06:55.277Z,67.00
2018-06-20T20:09:24.133Z,67.30
2018-06-20T20:11:52.819Z,67.40
2018-06-20T20:16:49.805Z,67.50
2018-06-20T20:19:18.408Z,67.70
2018-06-20T20:21:47.041Z,68.30
2018-06-20T20:24:15.769Z,68.50
2018-06-20T20:26:44.381Z,68.70
2018-06-20T20:29:13.158Z,68.90
2018-06-20T20:31:41.989Z,69.30
2018-06-20T20:34:10.893Z,69.30
2018-06-20T20:36:39.615Z,69.50
2018-06-20T20:39:09.785Z,69.80
2018-06-20T20:41:38.490Z,69.80
2018-06-20T20:44:07.928Z,69.80
2018-06-20T20:46:36.950Z,69.90
2018-06-20T20:49:05.606Z,70.20
2018-06-20T20:51:34.339Z,70.30
2018-06-20T20:54:03.173Z,70.30
2018-06-20T20:56:31.832Z,70.30
2018-06-20T20:59:00.651Z,70.30
2018-06-20T21:01:29.483Z,70.30
2018-06-20T21:03:58.266Z,70.50
2018-06-20T21:06:26.930Z,70.70
2018-06-20T21:08:55.728Z,71.00
2018-06-20T21:11:24.565Z,71.10
2018-06-20T21:13:53.413Z,71.30
2018-06-20T21:16:22.192Z,71.40
2018-06-20T21:18:51.944Z,71.30
2018-06-20T21:21:20.650Z,71.20
2018-06-20T21:23:49.353Z,70.90
2018-06-20T21:26:18.005Z,70.70
2018-06-20T21:28:46.693Z,70.40
2018-06-20T21:31:16.147Z,70.50
2018-06-20T21:33:44.845Z,70.30
2018-06-20T21:36:13.471Z,70.60
2018-06-20T21:38:42.315Z,70.90
2018-06-20T21:41:11.067Z,71.00
2018-06-20T21:43:39.727Z,71.30
2018-06-20T21:46:08.445Z,71.30
2018-06-20T21:48:37.310Z,71.30
2018-06-20T21:51:06.206Z,71.40
2018-06-20T21:53:35.011Z,71.40
2018-06-20T21:56:04.839Z,71.40
2018-06-20T21:58:33.547Z,71.40
2018-06-20T22:01:02.265Z,71.30
2018-06-20T22:03:31.009Z,71.60
2018-06-20T22:05:59.762Z,71.50
2018-06-20T22:08:28.567Z,71.40
2018-06-20T22:10:57.323Z,71.30
2018-06-20T22:13:26.035Z,71.10
2018-06-20T22:15:54.888Z,71.10
2018-06-20T22:18:24.909Z,70.90
2018-06-20T22:20:54.632Z,71.00
2018-06-20T22:23:23.287Z,71.00
2018-06-20T22:25:52.002Z,70.90
2018-06-20T22:28:21.402Z,70.80
2018-06-20T22:30:50.153Z,70.50
2018-06-20T22:33:18.891Z,70.30
2018-06-20T22:35:47.624Z,70.30
2018-06-20T22:38:16.306Z,70.30
2018-06-20T22:40:45.042Z,70.30
2018-06-20T22:43:13.760Z,70.30
2018-06-20T22:45:43.325Z,70.30
2018-06-20T22:48:12.047Z,70.30
2018-06-20T22:50:40.729Z,70.30
2018-06-20T22:53:09.492Z,70.30
2018-06-20T22:55:38.112Z,70.50
2018-06-20T22:58:06.837Z,70.60
2018-06-20T23:00:35.514Z,70.60
2018-06-20T23:03:04.822Z,70.60
2018-06-20T23:05:33.615Z,70.60
2018-06-20T23:08:02.345Z,70.60
2018-06-20T23:10:31.136Z,70.40
2018-06-20T23:12:59.855Z,70.40
2018-06-20T23:15:28.666Z,70.80
2018-06-20T23:17:57.374Z,71.70
2018-06-20T23:20:26.092Z,72.10
2018-06-20T23:22:54.869Z,72.30
2018-06-20T23:25:23.584Z,72.30
2018-06-20T23:27:52.422Z,72.20
2018-06-20T23:30:21.252Z,72.50
2018-06-20T23:32:50.026Z,72.30
2018-06-20T23:35:18.778Z,72.20
2018-06-20T23:37:47.501Z,72.20
2018-06-20T23:40:16.236Z,72.50
2018-06-20T23:42:44.992Z,72.40
2018-06-20T23:45:13.728Z,72.50
2018-06-20T23:47:42.452Z,72.20
2018-06-20T23:50:11.239Z,72.20
2018-06-20T23:52:39.956Z,72.10
2018-06-20T23:55:08.670Z,72.20
2018-06-20T23:57:37.399Z,72.20
